Palacios — WDH7171 — position and weather

sailwx.info

Track history (hours):
 
Tides and Currents Weather Stations Pressure Air Temp Water Temp Dewpoint Dewpoint Depression Visibility Wind Speed Wind Dir Waves Ship Positions

Palacios

Owner: Higman Barge Lines, Inc., Orange, TX. More information available from US FCC via Universal Licensing System and Coast Guard Vessel Documentation Center.

Last reported at 2017-Oct-19 21:21 UTC. Time now 2017-Oct-19 23:41 UTC.
Position N 29°45' W 095°06'.

Length 26 m; draft 2.7 m.

Type: Towing. MMSI: 367645520.

Date/timePositionNaut miles runAvg speedWind from/ knotsBaromVisibWave heightAir tempDewpointWater temp
2017-Oct-19 21:21N 29°45' W 095°06'1 3.1
2017-Oct-19 21:00N 29°45' W 095°07'0 0.0
2017-Oct-19 20:30N 29°45' W 095°07'0 0.0
2017-Oct-19 20:00N 29°45' W 095°07'0 0.0
2017-Oct-19 19:26N 29°45' W 095°07'0 0.0
2017-Oct-19 18:59N 29°45' W 095°07'0 0.0
2017-Oct-19 18:30N 29°45' W 095°07'0 0.0
2017-Oct-19 17:58N 29°45' W 095°07'0 0.0
2017-Oct-19 17:30N 29°45' W 095°07'0 0.0
2017-Oct-19 17:00N 29°45' W 095°07'0 0.0
2017-Oct-19 16:27N 29°45' W 095°07'0 0.0
2017-Oct-19 15:57N 29°45' W 095°07'0 0.0
2017-Oct-19 15:27N 29°45' W 095°07'0 0.0
2017-Oct-19 14:15N 29°45' W 095°07'0 0.0
2017-Oct-19 14:00N 29°45' W 095°07'0 0.0
2017-Oct-19 12:11N 29°45' W 095°07'0 0.0
2017-Oct-19 11:59N 29°45' W 095°07'0 0.0
2017-Oct-19 11:29N 29°45' W 095°07'0 0.0
2017-Oct-19 10:55N 29°45' W 095°07'0 0.0
2017-Oct-19 09:45N 29°45' W 095°07'1 4.1
2017-Oct-19 09:30N 29°46' W 095°06'1 0.8
2017-Oct-19 08:40N 29°46' W 095°07'0 0.3
2017-Oct-19 08:25N 29°46' W 095°07'1 2.1
2017-Oct-19 07:57N 29°45' W 095°06'2 4.7
2017-Oct-19 07:30N 29°44' W 095°03'3 5.4
2017-Oct-19 07:00N 29°43' W 095°01'3 6.3
2017-Oct-19 06:30N 29°40' W 094°59'4 7.2
2017-Oct-19 06:00N 29°37' W 094°57'4 7.2
2017-Oct-19 05:30N 29°34' W 094°55'4 7.3
2017-Oct-19 05:00N 29°31' W 094°53'71 5.0
2017-Oct-18 14:52N 30°04' W 093°40'5 6.0
2017-Oct-18 14:00N 30°04' W 093°34'3 5.8
2017-Oct-18 13:30N 30°04' W 093°31'3 5.9
2017-Oct-18 13:00N 30°04' W 093°28'3 5.9
2017-Oct-18 12:30N 30°04' W 093°24'3 5.1
2017-Oct-18 12:00N 30°04' W 093°21'2 3.6
2017-Oct-18 11:30N 30°05' W 093°20'3 5.6
2017-Oct-18 11:00N 30°08' W 093°20'3 5.8
2017-Oct-18 10:30N 30°11' W 093°19'2 4.2
2017-Oct-18 10:00N 30°12' W 093°17'1 2.6
2017-Oct-18 09:30N 30°13' W 093°16'1 1.7
2017-Oct-18 09:00N 30°14' W 093°16'0 0.0
2017-Oct-18 08:30N 30°14' W 093°16'0 0.6
2017-Oct-18 08:00N 30°14' W 093°15'0 0.0
2017-Oct-18 07:30N 30°14' W 093°15'0 0.0
2017-Oct-18 07:00N 30°14' W 093°15'0 0.0
2017-Oct-18 06:30N 30°14' W 093°15'0 0.0
2017-Oct-18 06:00N 30°14' W 093°15'0 0.0
2017-Oct-18 05:30N 30°14' W 093°15'0 0.0
2017-Oct-18 05:00N 30°14' W 093°15'0 0.0
2017-Oct-18 04:30N 30°14' W 093°15'0 0.0
2017-Oct-18 04:00N 30°14' W 093°15'0 0.0
2017-Oct-18 03:30N 30°14' W 093°15'0 0.0
2017-Oct-18 03:00N 30°14' W 093°15'0 0.0
2017-Oct-18 02:30N 30°14' W 093°15'0 0.0
2017-Oct-18 02:00N 30°14' W 093°15'0 0.0
2017-Oct-18 01:30N 30°14' W 093°15'0 0.0
2017-Oct-18 01:00N 30°14' W 093°15'0 0.0
2017-Oct-18 00:30N 30°14' W 093°15'0 0.0
2017-Oct-18 00:00N 30°14' W 093°15'0 0.0
2017-Oct-17 23:30N 30°14' W 093°15'0 0.0
2017-Oct-17 23:00N 30°14' W 093°15'0 0.0
2017-Oct-17 22:30N 30°14' W 093°15'0 0.0
2017-Oct-17 22:00N 30°14' W 093°15'0 0.0
2017-Oct-17 21:30N 30°14' W 093°15'0 0.0
2017-Oct-17 21:00N 30°14' W 093°15'0 0.0
2017-Oct-17 20:30N 30°14' W 093°15'0 0.0
2017-Oct-17 20:00N 30°14' W 093°15'0 0.0
2017-Oct-17 19:30N 30°14' W 093°15'0 0.0
2017-Oct-17 19:00N 30°14' W 093°15'0 0.0
2017-Oct-17 18:30N 30°14' W 093°15'0 0.0
2017-Oct-17 18:00N 30°14' W 093°15'0 0.0
2017-Oct-17 17:30N 30°14' W 093°15'0 0.0
2017-Oct-17 17:00N 30°14' W 093°15'0 0.0
2017-Oct-17 16:30N 30°14' W 093°15'0 0.0
2017-Oct-17 16:00N 30°14' W 093°15'0 0.0
2017-Oct-17 15:30N 30°14' W 093°15'0 0.0
2017-Oct-17 15:00N 30°14' W 093°15'0 0.0
2017-Oct-17 14:30N 30°14' W 093°15'0 0.0
2017-Oct-17 14:00N 30°14' W 093°15'0 0.0
2017-Oct-17 13:30N 30°14' W 093°15'0 0.0
2017-Oct-17 13:00N 30°14' W 093°15'0 0.0
2017-Oct-17 12:30N 30°14' W 093°15'0 0.0
2017-Oct-17 12:00N 30°14' W 093°15'0 0.0
2017-Oct-17 11:30N 30°14' W 093°15'0 0.0
2017-Oct-17 11:00N 30°14' W 093°15'0 0.1
2017-Oct-17 10:30N 30°14' W 093°15'1 2.2
2017-Oct-17 10:00N 30°13' W 093°16'2 3.0
2017-Oct-17 09:30N 30°12' W 093°17'0 0.1
2017-Oct-17 09:00N 30°12' W 093°17'0 0.0
2017-Oct-17 08:30N 30°12' W 093°17'0 0.0
2017-Oct-17 08:00N 30°12' W 093°17'0 0.0
2017-Oct-17 07:30N 30°12' W 093°17'0 0.0
2017-Oct-17 07:00N 30°12' W 093°17'0 0.0
2017-Oct-17 06:30N 30°12' W 093°17'0 0.0
2017-Oct-17 06:00N 30°12' W 093°17'0 0.0
2017-Oct-17 05:30N 30°12' W 093°17'0 0.0
2017-Oct-17 05:00N 30°12' W 093°17'0 0.0
2017-Oct-17 04:30N 30°12' W 093°17'0 0.0
2017-Oct-17 04:00N 30°12' W 093°17'0 0.0
2017-Oct-17 03:30N 30°12' W 093°17'0 0.0
2017-Oct-17 03:00N 30°12' W 093°17'0 0.0
2017-Oct-17 02:30N 30°12' W 093°17'0 0.0
2017-Oct-17 02:00N 30°12' W 093°17'0 0.0
2017-Oct-17 01:30N 30°12' W 093°17'0 0.0
2017-Oct-17 01:00N 30°12' W 093°17'0 0.0
2017-Oct-17 00:30N 30°12' W 093°17'0 0.0
2017-Oct-17 00:00N 30°12' W 093°17'0 0.0
2017-Oct-16 23:30N 30°12' W 093°17'0 0.0
2017-Oct-16 23:00N 30°12' W 093°17'0 0.0
2017-Oct-16 22:30N 30°12' W 093°17'0 0.0
2017-Oct-16 22:00N 30°12' W 093°17'0 0.0
2017-Oct-16 21:30N 30°12' W 093°17'0 0.0
2017-Oct-16 21:00N 30°12' W 093°17'0 0.0
2017-Oct-16 20:30N 30°12' W 093°17'0 0.0
2017-Oct-16 20:00N 30°12' W 093°17'2 3.3
2017-Oct-16 19:30N 30°11' W 093°19'3 6.2
2017-Oct-16 19:00N 30°08' W 093°20'2 4.2
2017-Oct-16 18:30N 30°06' W 093°19'0 0.4
2017-Oct-16 18:00N 30°06' W 093°19'0 0.0
2017-Oct-16 17:30N 30°06' W 093°19'0 0.0
2017-Oct-16 17:00N 30°06' W 093°19'0 0.0
2017-Oct-16 16:30N 30°06' W 093°19'0 0.0
2017-Oct-16 16:00N 30°06' W 093°19'0 0.0
2017-Oct-16 15:30N 30°06' W 093°19'0 0.0
2017-Oct-16 15:00N 30°06' W 093°19'0 0.0
2017-Oct-16 14:00N 30°06' W 093°19'0 0.0
2017-Oct-16 13:30N 30°06' W 093°19'0 0.0
2017-Oct-16 13:00N 30°06' W 093°19'0 0.0
2017-Oct-16 12:30N 30°06' W 093°19'0 0.5
2017-Oct-16 12:00N 30°06' W 093°19'0 0.0
2017-Oct-16 11:30N 30°06' W 093°19'0 0.0
2017-Oct-16 11:00N 30°06' W 093°19'0 0.0
2017-Oct-16 10:30N 30°06' W 093°19'0 0.0
2017-Oct-16 10:00N 30°06' W 093°19'0 0.0
2017-Oct-16 09:30N 30°06' W 093°19'0 0.0
2017-Oct-16 09:00N 30°06' W 093°19'0 0.0
2017-Oct-16 08:30N 30°06' W 093°19'1 2.1
2017-Oct-16 08:00N 30°06' W 093°20'3 6.3
2017-Oct-16 07:30N 30°10' W 093°19'1 1.4
2017-Oct-16 07:00N 30°10' W 093°19'0 0.0
2017-Oct-16 06:30N 30°10' W 093°19'0 0.0
2017-Oct-16 06:00N 30°10' W 093°19'0 0.0
2017-Oct-16 05:30N 30°10' W 093°19'0 0.0
2017-Oct-16 05:00N 30°10' W 093°19'0 0.0
2017-Oct-16 04:30N 30°10' W 093°19'0 0.0
2017-Oct-16 04:00N 30°10' W 093°19'0 0.0
2017-Oct-16 03:30N 30°10' W 093°19'0 0.0
2017-Oct-16 03:00N 30°10' W 093°19'0 0.0
2017-Oct-16 02:30N 30°10' W 093°19'0 0.0
2017-Oct-16 02:00N 30°10' W 093°19'0 0.0
2017-Oct-16 01:30N 30°10' W 093°19'0 0.0
2017-Oct-16 01:00N 30°10' W 093°19'0 0.0
2017-Oct-16 00:30N 30°10' W 093°19'0 0.0
2017-Oct-16 00:00N 30°10' W 093°19'0 0.0
2017-Oct-15 23:30N 30°10' W 093°19'0 0.0
2017-Oct-15 23:00N 30°10' W 093°19'0 0.0
2017-Oct-15 22:30N 30°10' W 093°19'0 0.0
2017-Oct-15 22:00N 30°10' W 093°19'0 0.0
2017-Oct-15 21:30N 30°10' W 093°19'0 0.0
2017-Oct-15 21:00N 30°10' W 093°19'0 0.0
2017-Oct-15 20:30N 30°10' W 093°19'0 0.0
2017-Oct-15 20:00N 30°10' W 093°19'0 0.0
2017-Oct-15 19:30N 30°10' W 093°19'0 0.0
2017-Oct-15 19:00N 30°10' W 093°19'0 0.0
2017-Oct-15 18:30N 30°10' W 093°19'0 0.0
2017-Oct-15 18:00N 30°10' W 093°19'0 0.0
2017-Oct-15 17:30N 30°10' W 093°19'0 0.0
2017-Oct-15 17:00N 30°10' W 093°19'0 0.0
2017-Oct-15 16:30N 30°10' W 093°19'0 0.0
2017-Oct-15 16:00N 30°10' W 093°19'0 0.0
2017-Oct-15 15:30N 30°10' W 093°19'0 0.0
2017-Oct-15 15:00N 30°10' W 093°19'0 0.0
2017-Oct-15 14:00N 30°10' W 093°19'1 1.0
2017-Oct-15 13:30N 30°10' W 093°19'2 3.2
2017-Oct-15 13:00N 30°08' W 093°20'2 3.5
2017-Oct-15 12:30N 30°07' W 093°20'2 3.1
2017-Oct-15 12:00N 30°05' W 093°20'0 0.4
2017-Oct-15 11:30N 30°05' W 093°20'0 0.0
2017-Oct-15 11:00N 30°05' W 093°20'0 0.0
2017-Oct-15 10:30N 30°05' W 093°20'0 0.0
2017-Oct-15 10:00N 30°05' W 093°20'0 0.0
2017-Oct-15 09:30N 30°05' W 093°20'0 0.0
2017-Oct-15 09:00N 30°05' W 093°20'0 0.0
2017-Oct-15 08:30N 30°05' W 093°20'0 0.0
2017-Oct-15 08:00N 30°05' W 093°20'0 0.0
2017-Oct-15 07:30N 30°05' W 093°20'0 0.0
2017-Oct-15 07:00N 30°05' W 093°20'0 0.0
2017-Oct-15 06:30N 30°05' W 093°20'0 0.0
2017-Oct-15 06:00N 30°05' W 093°20'0 0.0
2017-Oct-15 05:30N 30°05' W 093°20'0 0.0
2017-Oct-15 05:00N 30°05' W 093°20'0 0.0
2017-Oct-15 04:30N 30°05' W 093°20'0 0.0
2017-Oct-15 04:00N 30°05' W 093°20'0 0.0
2017-Oct-15 03:30N 30°05' W 093°20'0 0.0
2017-Oct-15 03:00N 30°05' W 093°20'0 0.0
2017-Oct-15 02:30N 30°05' W 093°20'0 0.0
2017-Oct-15 02:00N 30°05' W 093°20'0 0.0
2017-Oct-15 01:30N 30°05' W 093°20'0 0.0
2017-Oct-15 01:00N 30°05' W 093°20'0 0.0
2017-Oct-15 00:30N 30°05' W 093°20'0 0.0
2017-Oct-15 00:00N 30°05' W 093°20'0 0.0
2017-Oct-14 23:30N 30°05' W 093°20'0 0.0
2017-Oct-14 23:00N 30°05' W 093°20'0 0.0
2017-Oct-14 22:30N 30°05' W 093°20'0 0.1
2017-Oct-14 22:00N 30°05' W 093°20'0 0.0
2017-Oct-14 21:30N 30°05' W 093°20'0 0.5
2017-Oct-14 21:00N 30°05' W 093°20'1 2.2
2017-Oct-14 20:30N 30°06' W 093°19'1 2.4
2017-Oct-14 20:00N 30°05' W 093°20'2 3.1
2017-Oct-14 19:30N 30°04' W 093°21'2 3.8
2017-Oct-14 19:00N 30°04' W 093°23'3 5.3
2017-Oct-14 18:30N 30°04' W 093°26'3 5.4
2017-Oct-14 18:00N 30°04' W 093°29'3 5.4
2017-Oct-14 17:30N 30°04' W 093°32'3 5.3
2017-Oct-14 17:00N 30°04' W 093°36'4 4.8
2017-Oct-14 16:16N 30°04' W 093°40'2 5.5
2017-Oct-14 15:53N 30°03' W 093°42'8 6.3
2017-Oct-14 14:34N 29°59' W 093°50'0 7.3
2017-Oct-14 14:30N 29°59' W 093°50'3 6.0
2017-Oct-14 14:00N 29°56' W 093°52'4 7.4
2017-Oct-14 13:29N 29°53' W 093°55'4 7.1
2017-Oct-14 12:54N 29°49' W 093°58'2 4.7
2017-Oct-14 12:22N 29°48' W 094°00'49 3.8
2017-Oct-13 23:23N 29°32' W 094°54'3 7.3
2017-Oct-13 23:00N 29°34' W 094°55'3 6.5
2017-Oct-13 22:30N 29°37' W 094°57'3 6.5
2017-Oct-13 22:00N 29°40' W 094°59'3 6.3
2017-Oct-13 21:30N 29°42' W 095°01'2 4.9
2017-Oct-13 21:00N 29°44' W 095°03'3 4.7
2017-Oct-13 20:26N 29°46' W 095°05'1 0.1
2017-Oct-13 08:30N 29°46' W 095°07'0 0.0
2017-Oct-12 08:36N 29°46' W 095°07'0 0.0
2017-Oct-12 08:18N 29°46' W 095°07'0 0.0
2017-Oct-12 06:55N 29°46' W 095°07'0 0.0
2017-Oct-12 06:27N 29°46' W 095°07'0 0.0
2017-Oct-12 04:45N 29°46' W 095°07'  
Track history (hours):
 
Tides and Currents Weather Stations Pressure Air Temp Water Temp Dewpoint Dewpoint Depression Visibility Wind Speed Wind Dir Waves Ship Positions

Palacios

Owner: Higman Barge Lines, Inc., Orange, TX. More information available from US FCC via Universal Licensing System and Coast Guard Vessel Documentation Center.

Last reported at 2017-Oct-19 21:21 UTC. Time now 2017-Oct-19 23:41 UTC.
Position N 29°45' W 095°06'.

Length 26 m; draft 2.7 m.

Type: Towing. MMSI: 367645520.

Date/timePositionNaut miles runAvg speedWind from/ knotsBaromVisibWave heightAir tempDewpointWater temp
2017-Oct-19 21:21N 29°45' W 095°06'1 3.1
2017-Oct-19 21:00N 29°45' W 095°07'0 0.0
2017-Oct-19 20:30N 29°45' W 095°07'0 0.0
2017-Oct-19 20:00N 29°45' W 095°07'0 0.0
2017-Oct-19 19:26N 29°45' W 095°07'0 0.0
2017-Oct-19 18:59N 29°45' W 095°07'0 0.0
2017-Oct-19 18:30N 29°45' W 095°07'0 0.0
2017-Oct-19 17:58N 29°45' W 095°07'0 0.0
2017-Oct-19 17:30N 29°45' W 095°07'0 0.0
2017-Oct-19 17:00N 29°45' W 095°07'0 0.0
2017-Oct-19 16:27N 29°45' W 095°07'0 0.0
2017-Oct-19 15:57N 29°45' W 095°07'0 0.0
2017-Oct-19 15:27N 29°45' W 095°07'0 0.0
2017-Oct-19 14:15N 29°45' W 095°07'0 0.0
2017-Oct-19 14:00N 29°45' W 095°07'0 0.0
2017-Oct-19 12:11N 29°45' W 095°07'0 0.0
2017-Oct-19 11:59N 29°45' W 095°07'0 0.0
2017-Oct-19 11:29N 29°45' W 095°07'0 0.0
2017-Oct-19 10:55N 29°45' W 095°07'0 0.0
2017-Oct-19 09:45N 29°45' W 095°07'1 4.1
2017-Oct-19 09:30N 29°46' W 095°06'1 0.8
2017-Oct-19 08:40N 29°46' W 095°07'0 0.3
2017-Oct-19 08:25N 29°46' W 095°07'1 2.1
2017-Oct-19 07:57N 29°45' W 095°06'2 4.7
2017-Oct-19 07:30N 29°44' W 095°03'3 5.4
2017-Oct-19 07:00N 29°43' W 095°01'3 6.3
2017-Oct-19 06:30N 29°40' W 094°59'4 7.2
2017-Oct-19 06:00N 29°37' W 094°57'4 7.2
2017-Oct-19 05:30N 29°34' W 094°55'4 7.3
2017-Oct-19 05:00N 29°31' W 094°53'71 5.0
2017-Oct-18 14:52N 30°04' W 093°40'5 6.0
2017-Oct-18 14:00N 30°04' W 093°34'3 5.8
2017-Oct-18 13:30N 30°04' W 093°31'3 5.9
2017-Oct-18 13:00N 30°04' W 093°28'3 5.9
2017-Oct-18 12:30N 30°04' W 093°24'3 5.1
2017-Oct-18 12:00N 30°04' W 093°21'2 3.6
2017-Oct-18 11:30N 30°05' W 093°20'3 5.6
2017-Oct-18 11:00N 30°08' W 093°20'3 5.8
2017-Oct-18 10:30N 30°11' W 093°19'2 4.2
2017-Oct-18 10:00N 30°12' W 093°17'1 2.6
2017-Oct-18 09:30N 30°13' W 093°16'1 1.7
2017-Oct-18 09:00N 30°14' W 093°16'0 0.0
2017-Oct-18 08:30N 30°14' W 093°16'0 0.6
2017-Oct-18 08:00N 30°14' W 093°15'0 0.0
2017-Oct-18 07:30N 30°14' W 093°15'0 0.0
2017-Oct-18 07:00N 30°14' W 093°15'0 0.0
2017-Oct-18 06:30N 30°14' W 093°15'0 0.0
2017-Oct-18 06:00N 30°14' W 093°15'0 0.0
2017-Oct-18 05:30N 30°14' W 093°15'0 0.0
2017-Oct-18 05:00N 30°14' W 093°15'0 0.0
2017-Oct-18 04:30N 30°14' W 093°15'0 0.0
2017-Oct-18 04:00N 30°14' W 093°15'0 0.0
2017-Oct-18 03:30N 30°14' W 093°15'0 0.0
2017-Oct-18 03:00N 30°14' W 093°15'0 0.0
2017-Oct-18 02:30N 30°14' W 093°15'0 0.0
2017-Oct-18 02:00N 30°14' W 093°15'0 0.0
2017-Oct-18 01:30N 30°14' W 093°15'0 0.0
2017-Oct-18 01:00N 30°14' W 093°15'0 0.0
2017-Oct-18 00:30N 30°14' W 093°15'0 0.0
2017-Oct-18 00:00N 30°14' W 093°15'0 0.0
2017-Oct-17 23:30N 30°14' W 093°15'0 0.0
2017-Oct-17 23:00N 30°14' W 093°15'0 0.0
2017-Oct-17 22:30N 30°14' W 093°15'0 0.0
2017-Oct-17 22:00N 30°14' W 093°15'0 0.0
2017-Oct-17 21:30N 30°14' W 093°15'0 0.0
2017-Oct-17 21:00N 30°14' W 093°15'0 0.0
2017-Oct-17 20:30N 30°14' W 093°15'0 0.0
2017-Oct-17 20:00N 30°14' W 093°15'0 0.0
2017-Oct-17 19:30N 30°14' W 093°15'0 0.0
2017-Oct-17 19:00N 30°14' W 093°15'0 0.0
2017-Oct-17 18:30N 30°14' W 093°15'0 0.0
2017-Oct-17 18:00N 30°14' W 093°15'0 0.0
2017-Oct-17 17:30N 30°14' W 093°15'0 0.0
2017-Oct-17 17:00N 30°14' W 093°15'0 0.0
2017-Oct-17 16:30N 30°14' W 093°15'0 0.0
2017-Oct-17 16:00N 30°14' W 093°15'0 0.0
2017-Oct-17 15:30N 30°14' W 093°15'0 0.0
2017-Oct-17 15:00N 30°14' W 093°15'0 0.0
2017-Oct-17 14:30N 30°14' W 093°15'0 0.0
2017-Oct-17 14:00N 30°14' W 093°15'0 0.0
2017-Oct-17 13:30N 30°14' W 093°15'0 0.0
2017-Oct-17 13:00N 30°14' W 093°15'0 0.0
2017-Oct-17 12:30N 30°14' W 093°15'0 0.0
2017-Oct-17 12:00N 30°14' W 093°15'0 0.0
2017-Oct-17 11:30N 30°14' W 093°15'0 0.0
2017-Oct-17 11:00N 30°14' W 093°15'0 0.1
2017-Oct-17 10:30N 30°14' W 093°15'1 2.2
2017-Oct-17 10:00N 30°13' W 093°16'2 3.0
2017-Oct-17 09:30N 30°12' W 093°17'0 0.1
2017-Oct-17 09:00N 30°12' W 093°17'0 0.0
2017-Oct-17 08:30N 30°12' W 093°17'0 0.0
2017-Oct-17 08:00N 30°12' W 093°17'0 0.0
2017-Oct-17 07:30N 30°12' W 093°17'0 0.0
2017-Oct-17 07:00N 30°12' W 093°17'0 0.0
2017-Oct-17 06:30N 30°12' W 093°17'0 0.0
2017-Oct-17 06:00N 30°12' W 093°17'0 0.0
2017-Oct-17 05:30N 30°12' W 093°17'0 0.0
2017-Oct-17 05:00N 30°12' W 093°17'0 0.0
2017-Oct-17 04:30N 30°12' W 093°17'0 0.0
2017-Oct-17 04:00N 30°12' W 093°17'0 0.0
2017-Oct-17 03:30N 30°12' W 093°17'0 0.0
2017-Oct-17 03:00N 30°12' W 093°17'0 0.0
2017-Oct-17 02:30N 30°12' W 093°17'0 0.0
2017-Oct-17 02:00N 30°12' W 093°17'0 0.0
2017-Oct-17 01:30N 30°12' W 093°17'0 0.0
2017-Oct-17 01:00N 30°12' W 093°17'0 0.0
2017-Oct-17 00:30N 30°12' W 093°17'0 0.0
2017-Oct-17 00:00N 30°12' W 093°17'0 0.0
2017-Oct-16 23:30N 30°12' W 093°17'0 0.0
2017-Oct-16 23:00N 30°12' W 093°17'0 0.0
2017-Oct-16 22:30N 30°12' W 093°17'0 0.0
2017-Oct-16 22:00N 30°12' W 093°17'0 0.0
2017-Oct-16 21:30N 30°12' W 093°17'0 0.0
2017-Oct-16 21:00N 30°12' W 093°17'0 0.0
2017-Oct-16 20:30N 30°12' W 093°17'0 0.0
2017-Oct-16 20:00N 30°12' W 093°17'2 3.3
2017-Oct-16 19:30N 30°11' W 093°19'3 6.2
2017-Oct-16 19:00N 30°08' W 093°20'2 4.2
2017-Oct-16 18:30N 30°06' W 093°19'0 0.4
2017-Oct-16 18:00N 30°06' W 093°19'0 0.0
2017-Oct-16 17:30N 30°06' W 093°19'0 0.0
2017-Oct-16 17:00N 30°06' W 093°19'0 0.0
2017-Oct-16 16:30N 30°06' W 093°19'0 0.0
2017-Oct-16 16:00N 30°06' W 093°19'0 0.0
2017-Oct-16 15:30N 30°06' W 093°19'0 0.0
2017-Oct-16 15:00N 30°06' W 093°19'0 0.0
2017-Oct-16 14:00N 30°06' W 093°19'0 0.0
2017-Oct-16 13:30N 30°06' W 093°19'0 0.0
2017-Oct-16 13:00N 30°06' W 093°19'0 0.0
2017-Oct-16 12:30N 30°06' W 093°19'0 0.5
2017-Oct-16 12:00N 30°06' W 093°19'0 0.0
2017-Oct-16 11:30N 30°06' W 093°19'0 0.0
2017-Oct-16 11:00N 30°06' W 093°19'0 0.0
2017-Oct-16 10:30N 30°06' W 093°19'0 0.0
2017-Oct-16 10:00N 30°06' W 093°19'0 0.0
2017-Oct-16 09:30N 30°06' W 093°19'0 0.0
2017-Oct-16 09:00N 30°06' W 093°19'0 0.0
2017-Oct-16 08:30N 30°06' W 093°19'1 2.1
2017-Oct-16 08:00N 30°06' W 093°20'3 6.3
2017-Oct-16 07:30N 30°10' W 093°19'1 1.4
2017-Oct-16 07:00N 30°10' W 093°19'0 0.0
2017-Oct-16 06:30N 30°10' W 093°19'0 0.0
2017-Oct-16 06:00N 30°10' W 093°19'0 0.0
2017-Oct-16 05:30N 30°10' W 093°19'0 0.0
2017-Oct-16 05:00N 30°10' W 093°19'0 0.0
2017-Oct-16 04:30N 30°10' W 093°19'0 0.0
2017-Oct-16 04:00N 30°10' W 093°19'0 0.0
2017-Oct-16 03:30N 30°10' W 093°19'0 0.0
2017-Oct-16 03:00N 30°10' W 093°19'0 0.0
2017-Oct-16 02:30N 30°10' W 093°19'0 0.0
2017-Oct-16 02:00N 30°10' W 093°19'0 0.0
2017-Oct-16 01:30N 30°10' W 093°19'0 0.0
2017-Oct-16 01:00N 30°10' W 093°19'0 0.0
2017-Oct-16 00:30N 30°10' W 093°19'0 0.0
2017-Oct-16 00:00N 30°10' W 093°19'0 0.0
2017-Oct-15 23:30N 30°10' W 093°19'0 0.0
2017-Oct-15 23:00N 30°10' W 093°19'0 0.0
2017-Oct-15 22:30N 30°10' W 093°19'0 0.0
2017-Oct-15 22:00N 30°10' W 093°19'0 0.0
2017-Oct-15 21:30N 30°10' W 093°19'0 0.0
2017-Oct-15 21:00N 30°10' W 093°19'0 0.0
2017-Oct-15 20:30N 30°10' W 093°19'0 0.0
2017-Oct-15 20:00N 30°10' W 093°19'0 0.0
2017-Oct-15 19:30N 30°10' W 093°19'0 0.0
2017-Oct-15 19:00N 30°10' W 093°19'0 0.0
2017-Oct-15 18:30N 30°10' W 093°19'0 0.0
2017-Oct-15 18:00N 30°10' W 093°19'0 0.0
2017-Oct-15 17:30N 30°10' W 093°19'0 0.0
2017-Oct-15 17:00N 30°10' W 093°19'0 0.0
2017-Oct-15 16:30N 30°10' W 093°19'0 0.0
2017-Oct-15 16:00N 30°10' W 093°19'0 0.0
2017-Oct-15 15:30N 30°10' W 093°19'0 0.0
2017-Oct-15 15:00N 30°10' W 093°19'0 0.0
2017-Oct-15 14:00N 30°10' W 093°19'1 1.0
2017-Oct-15 13:30N 30°10' W 093°19'2 3.2
2017-Oct-15 13:00N 30°08' W 093°20'2 3.5
2017-Oct-15 12:30N 30°07' W 093°20'2 3.1
2017-Oct-15 12:00N 30°05' W 093°20'0 0.4
2017-Oct-15 11:30N 30°05' W 093°20'0 0.0
2017-Oct-15 11:00N 30°05' W 093°20'0 0.0
2017-Oct-15 10:30N 30°05' W 093°20'0 0.0
2017-Oct-15 10:00N 30°05' W 093°20'0 0.0
2017-Oct-15 09:30N 30°05' W 093°20'0 0.0
2017-Oct-15 09:00N 30°05' W 093°20'0 0.0
2017-Oct-15 08:30N 30°05' W 093°20'0 0.0
2017-Oct-15 08:00N 30°05' W 093°20'0 0.0
2017-Oct-15 07:30N 30°05' W 093°20'0 0.0
2017-Oct-15 07:00N 30°05' W 093°20'0 0.0
2017-Oct-15 06:30N 30°05' W 093°20'0 0.0
2017-Oct-15 06:00N 30°05' W 093°20'0 0.0
2017-Oct-15 05:30N 30°05' W 093°20'0 0.0
2017-Oct-15 05:00N 30°05' W 093°20'0 0.0
2017-Oct-15 04:30N 30°05' W 093°20'0 0.0
2017-Oct-15 04:00N 30°05' W 093°20'0 0.0
2017-Oct-15 03:30N 30°05' W 093°20'0 0.0
2017-Oct-15 03:00N 30°05' W 093°20'0 0.0
2017-Oct-15 02:30N 30°05' W 093°20'0 0.0
2017-Oct-15 02:00N 30°05' W 093°20'0 0.0
2017-Oct-15 01:30N 30°05' W 093°20'0 0.0
2017-Oct-15 01:00N 30°05' W 093°20'0 0.0
2017-Oct-15 00:30N 30°05' W 093°20'0 0.0
2017-Oct-15 00:00N 30°05' W 093°20'0 0.0
2017-Oct-14 23:30N 30°05' W 093°20'0 0.0
2017-Oct-14 23:00N 30°05' W 093°20'0 0.0
2017-Oct-14 22:30N 30°05' W 093°20'0 0.1
2017-Oct-14 22:00N 30°05' W 093°20'0 0.0
2017-Oct-14 21:30N 30°05' W 093°20'0 0.5
2017-Oct-14 21:00N 30°05' W 093°20'1 2.2
2017-Oct-14 20:30N 30°06' W 093°19'1 2.4
2017-Oct-14 20:00N 30°05' W 093°20'2 3.1
2017-Oct-14 19:30N 30°04' W 093°21'2 3.8
2017-Oct-14 19:00N 30°04' W 093°23'3 5.3
2017-Oct-14 18:30N 30°04' W 093°26'3 5.4
2017-Oct-14 18:00N 30°04' W 093°29'3 5.4
2017-Oct-14 17:30N 30°04' W 093°32'3 5.3
2017-Oct-14 17:00N 30°04' W 093°36'4 4.8
2017-Oct-14 16:16N 30°04' W 093°40'2 5.5
2017-Oct-14 15:53N 30°03' W 093°42'8 6.3
2017-Oct-14 14:34N 29°59' W 093°50'0 7.3
2017-Oct-14 14:30N 29°59' W 093°50'3 6.0
2017-Oct-14 14:00N 29°56' W 093°52'4 7.4
2017-Oct-14 13:29N 29°53' W 093°55'4 7.1
2017-Oct-14 12:54N 29°49' W 093°58'2 4.7
2017-Oct-14 12:22N 29°48' W 094°00'49 3.8
2017-Oct-13 23:23N 29°32' W 094°54'3 7.3
2017-Oct-13 23:00N 29°34' W 094°55'3 6.5
2017-Oct-13 22:30N 29°37' W 094°57'3 6.5
2017-Oct-13 22:00N 29°40' W 094°59'3 6.3
2017-Oct-13 21:30N 29°42' W 095°01'2 4.9
2017-Oct-13 21:00N 29°44' W 095°03'3 4.7
2017-Oct-13 20:26N 29°46' W 095°05'1 0.1
2017-Oct-13 08:30N 29°46' W 095°07'0 0.0
2017-Oct-12 08:36N 29°46' W 095°07'0 0.0
2017-Oct-12 08:18N 29°46' W 095°07'0 0.0
2017-Oct-12 06:55N 29°46' W 095°07'0 0.0
2017-Oct-12 06:27N 29°46' W 095°07'0 0.0
2017-Oct-12 04:45N 29°46' W 095°07'  

Dump ship's entire track history